Time;durP1;ratioP1;P1;durP2;ratioP2;P2;SDS_P1;SDS_P2;PMS_P1;PMS_P2;Temp;Humidity;BMP_temperature;BMP_pressure;BME280_temperature;BME280_humidity;BME280_pressure;Samples;Min_cycle;Max_cycle;Signal;HPM_P1;HPM_P2
2023/05/01 00:01:04;;;;;;;4.78;2.90;;;;;;;19.75;58.37;95998.06;5033330;28;20064;-29
2023/05/01 00:03:29;;;;;;;6.45;2.35;;;;;;;19.96;57.37;96000.09;5033255;28;20112;-29
2023/05/01 00:06:03;;;;;;;4.22;2.40;;;;;;;19.83;57.93;95990.81;5032873;28;20108;-29
2023/05/01 00:08:29;;;;;;;2.40;2.20;;;;;;;19.78;57.78;95994.31;5040332;28;20130;-29
2023/05/01 00:10:55;;;;;;;3.90;2.25;;;;;;;19.80;57.99;95983.53;5032870;28;20104;-29
2023/05/01 00:13:23;;;;;;;3.42;2.25;;;;;;;19.71;57.98;95987.28;5032417;28;20513;-29
2023/05/01 00:15:50;;;;;;;3.40;2.20;;;;;;;19.94;57.11;95988.06;5032700;28;20022;-30
2023/05/01 00:18:16;;;;;;;3.22;2.45;;;;;;;19.86;57.21;95990.56;5033512;28;20021;-29
2023/05/01 00:20:41;;;;;;;4.25;2.80;;;;;;;19.69;57.27;95979.53;5033110;28;20025;-29
2023/05/01 00:23:07;;;;;;;5.68;2.65;;;;;;;19.65;57.40;95981.03;5033002;28;20014;-29
2023/05/01 00:25:33;;;;;;;5.25;2.50;;;;;;;19.56;57.77;95982.00;5032940;28;20029;-29
2023/05/01 00:27:58;;;;;;;2.90;2.28;;;;;;;19.77;57.37;95984.56;5033121;28;20025;-29
2023/05/01 00:30:24;;;;;;;3.95;2.60;;;;;;;19.67;57.24;95979.28;5032767;28;20466;-31
2023/05/01 00:32:50;;;;;;;4.75;2.63;;;;;;;19.84;56.95;95976.56;5032969;28;20021;-29
2023/05/01 00:35:16;;;;;;;4.55;2.72;;;;;;;19.86;56.82;95967.81;5032773;28;20075;-29
2023/05/01 00:37:42;;;;;;;4.40;2.60;;;;;;;19.63;57.67;95967.03;5032673;28;20037;-29
2023/05/01 00:40:07;;;;;;;3.15;2.42;;;;;;;19.66;57.33;95966.75;5033000;28;20474;-29
2023/05/01 00:42:38;;;;;;;5.38;2.60;;;;;;;19.66;57.25;95964.00;5033148;28;20362;-29
2023/05/01 00:45:07;;;;;;;2.78;2.00;;;;;;;19.73;56.90;95958.03;5033455;28;20022;-29
2023/05/01 00:47:34;;;;;;;4.30;2.58;;;;;;;19.68;57.32;95953.25;5032686;28;20104;-29
2023/05/01 00:50:00;;;;;;;2.55;2.13;;;;;;;19.79;56.74;95955.28;5032889;28;20095;-29
2023/05/01 00:52:26;;;;;;;2.78;2.42;;;;;;;19.80;56.73;95945.03;5032431;28;20045;-29
2023/05/01 00:54:53;;;;;;;2.55;2.20;;;;;;;19.78;56.80;95937.25;5032420;28;20906;-29
2023/05/01 00:57:19;;;;;;;2.80;2.50;;;;;;;19.86;56.25;95948.53;5032186;28;20030;-29
2023/05/01 00:59:45;;;;;;;4.75;2.67;;;;;;;19.70;56.92;95941.75;5040233;28;20396;-29
2023/05/01 01:02:11;;;;;;;2.72;2.20;;;;;;;19.75;56.52;95940.28;5032304;28;20458;-29
2023/05/01 01:04:38;;;;;;;4.40;2.60;;;;;;;19.60;56.82;95941.25;5031327;28;20525;-29
2023/05/01 01:07:14;;;;;;;4.00;2.53;;;;;;;19.81;56.35;95935.53;5034083;28;20025;-29
2023/05/01 01:09:59;;;;;;;4.03;2.55;;;;;;;19.73;56.29;95938.03;5036388;28;20420;-29
2023/05/01 01:12:40;;;;;;;3.17;2.13;;;;;;;19.75;56.45;95935.53;5042006;28;20025;-29
2023/05/01 01:15:34;;;;;;;3.60;2.72;;;;;;;19.66;56.38;95939.25;5036105;28;20018;-29
2023/05/01 01:18:15;;;;;;;3.72;2.38;;;;;;;19.77;56.24;95932.28;5036566;28;20021;-29
2023/05/01 01:21:07;;;;;;;4.40;2.45;;;;;;;19.68;56.42;95930.50;5043253;28;20091;-29
2023/05/01 01:23:46;;;;;;;4.15;2.33;;;;;;;19.87;55.61;95933.53;5041548;28;20051;-29
2023/05/01 01:26:17;;;;;;;2.90;2.50;;;;;;;19.66;56.28;95933.75;5035849;28;20353;-29
2023/05/01 01:28:55;;;;;;;5.45;2.40;;;;;;;19.66;56.09;95939.25;5035731;28;20021;-29
2023/05/01 01:31:45;;;;;;;3.38;2.63;;;;;;;19.66;55.91;95944.75;5036166;28;20424;-29
2023/05/01 01:34:17;;;;;;;4.60;2.42;;;;;;;19.79;55.59;95933.25;5035662;28;20055;-30
2023/05/01 01:36:50;;;;;;;4.90;2.35;;;;;;;19.68;55.85;95938.75;5035424;28;20048;-29
2023/05/01 01:39:27;;;;;;;2.47;2.25;;;;;;;19.80;55.31;95934.00;5035531;28;20033;-29
2023/05/01 01:41:56;;;;;;;2.90;2.38;;;;;;;19.81;54.96;95939.03;5035351;28;20029;-30
2023/05/01 01:44:33;;;;;;;2.42;2.20;;;;;;;19.71;55.21;95940.53;5035331;28;20049;-29
2023/05/01 01:47:01;;;;;;;3.25;2.55;;;;;;;19.67;55.33;95934.50;5035495;28;20339;-29
2023/05/01 01:49:30;;;;;;;5.65;3.17;;;;;;;19.72;54.95;95934.53;5035623;28;20026;-29
2023/05/01 01:51:58;;;;;;;5.60;2.35;;;;;;;19.59;55.12;95934.25;5035232;28;20034;-29
2023/05/01 01:54:31;;;;;;;3.03;2.17;;;;;;;19.53;55.31;95936.25;5035039;28;20045;-29
2023/05/01 01:57:01;;;;;;;3.10;2.60;;;;;;;19.85;54.85;95941.53;5035208;28;20056;-29
2023/05/01 01:59:31;;;;;;;3.33;1.90;;;;;;;19.79;54.53;95935.25;5038791;28;20063;-29
2023/05/01 02:01:58;;;;;;;4.15;2.30;;;;;;;19.66;54.84;95931.00;5037767;28;20369;-30
2023/05/01 02:04:25;;;;;;;3.13;2.28;;;;;;;19.57;55.27;95934.00;5035712;28;20068;-29
2023/05/01 02:06:54;;;;;;;3.10;2.58;;;;;;;19.59;54.99;95926.00;5035031;28;20746;-29
2023/05/01 02:09:22;;;;;;;4.10;2.50;;;;;;;19.62;54.89;95930.50;5034887;28;20067;-29
2023/05/01 02:11:50;;;;;;;6.90;2.50;;;;;;;19.77;54.42;95913.78;5035010;28;20021;-29
2023/05/01 02:14:17;;;;;;;2.95;2.45;;;;;;;19.58;55.06;95921.75;5035032;28;20025;-30
2023/05/01 02:16:44;;;;;;;4.47;2.40;;;;;;;19.64;54.76;95919.00;5034758;28;20029;-29
2023/05/01 02:19:12;;;;;;;3.00;2.45;;;;;;;19.52;54.96;95931.25;5034518;28;20366;-29
2023/05/01 02:21:38;;;;;;;5.15;2.78;;;;;;;19.52;54.62;95928.50;5034601;28;20025;-29
2023/05/01 02:24:05;;;;;;;4.60;2.65;;;;;;;19.58;54.51;95927.25;5034798;28;20477;-29
2023/05/01 02:26:37;;;;;;;5.97;2.78;;;;;;;19.72;54.07;95914.50;5040605;28;20454;-29
2023/05/01 02:29:03;;;;;;;4.22;2.10;;;;;;;19.63;54.43;95917.50;5034575;28;20018;-29
2023/05/01 02:31:29;;;;;;;5.07;2.05;;;;;;;19.64;53.99;95914.25;5034792;28;20025;-29
2023/05/01 02:33:55;;;;;;;5.18;2.67;;;;;;;19.64;54.01;95914.25;5034627;28;20017;-29
2023/05/01 02:36:21;;;;;;;3.35;2.35;;;;;;;19.61;53.97;95915.25;5034637;28;20052;-29
2023/05/01 02:38:49;;;;;;;3.15;2.15;;;;;;;19.69;53.75;95910.75;5034229;28;20100;-29
2023/05/01 02:41:16;;;;;;;4.55;2.47;;;;;;;19.60;53.80;95913.75;5034246;28;20021;-29
2023/05/01 02:43:44;;;;;;;2.38;2.17;;;;;;;19.61;53.63;95903.50;5034550;28;20100;-29
2023/05/01 02:46:12;;;;;;;2.90;2.42;;;;;;;19.64;53.30;95895.00;5034514;28;20028;-29
2023/05/01 02:48:39;;;;;;;2.78;2.00;;;;;;;19.59;53.56;95900.50;5034623;28;20021;-29
2023/05/01 02:51:06;;;;;;;2.75;2.08;;;;;;;19.61;53.09;95898.75;5034083;28;20025;-29
2023/05/01 02:53:33;;;;;;;2.78;2.13;;;;;;;19.61;52.93;95898.00;5034091;28;20037;-29
2023/05/01 02:55:58;;;;;;;7.55;2.45;;;;;;;19.62;52.97;95896.75;5042035;28;20024;-29
2023/05/01 02:58:24;;;;;;;3.20;2.30;;;;;;;19.81;52.68;95888.75;5034030;28;20030;-29
2023/05/01 03:00:50;;;;;;;3.78;2.40;;;;;;;19.64;53.11;95884.00;5041164;28;20029;-29
2023/05/01 03:03:16;;;;;;;3.17;2.20;;;;;;;19.45;53.37;95888.44;5034007;28;20092;-29
2023/05/01 03:05:41;;;;;;;3.88;2.30;;;;;;;19.62;52.83;95878.25;5032509;28;20060;-29
2023/05/01 03:08:07;;;;;;;2.42;2.15;;;;;;;19.65;52.89;95877.25;5033663;28;20405;-29
2023/05/01 03:10:33;;;;;;;2.65;2.00;;;;;;;19.64;52.68;95881.25;5032585;28;20444;-29
2023/05/01 03:12:59;;;;;;;3.08;2.13;;;;;;;19.47;52.84;95877.69;5033839;28;20021;-29
2023/05/01 03:15:24;;;;;;;3.75;2.20;;;;;;;19.55;52.42;95875.97;5034138;28;20121;-29
2023/05/01 03:17:50;;;;;;;3.75;2.20;;;;;;;19.63;52.00;95877.00;5039625;28;20109;-30
2023/05/01 03:20:16;;;;;;;2.47;2.28;;;;;;;19.61;51.69;95868.50;5033529;28;20017;-29
2023/05/01 03:22:41;;;;;;;2.70;2.00;;;;;;;19.41;52.27;95863.19;5036588;28;20021;-29
2023/05/01 03:25:08;;;;;;;2.95;1.92;;;;;;;19.49;52.26;95869.72;5033671;28;20025;-29
2023/05/01 03:27:33;;;;;;;3.72;2.42;;;;;;;19.36;52.18;95861.19;5032270;28;20633;-29
2023/05/01 03:29:59;;;;;;;3.75;2.17;;;;;;;19.53;51.82;95870.25;5033023;28;20014;-28
2023/05/01 03:32:24;;;;;;;3.05;2.38;;;;;;;19.38;51.89;95861.44;5032351;28;20029;-29
2023/05/01 03:34:50;;;;;;;2.97;2.13;;;;;;;19.46;51.70;95867.94;5033764;28;20027;-29
2023/05/01 03:37:15;;;;;;;3.33;2.30;;;;;;;19.45;51.60;95865.69;5033219;28;20482;-29
2023/05/01 03:39:41;;;;;;;2.58;2.10;;;;;;;19.51;51.46;95878.25;5033487;28;20048;-29
2023/05/01 03:42:06;;;;;;;3.42;2.05;;;;;;;19.38;51.52;95870.44;5033790;28;20500;-30
2023/05/01 03:44:31;;;;;;;3.25;2.10;;;;;;;19.53;51.02;95870.25;5033624;28;20026;-31
2023/05/01 03:46:57;;;;;;;3.05;1.80;;;;;;;19.44;51.08;95873.19;5033265;28;20040;-29
2023/05/01 03:49:23;;;;;;;2.90;2.13;;;;;;;19.44;51.16;95864.94;5033229;28;20025;-29
2023/05/01 03:51:48;;;;;;;3.58;2.20;;;;;;;19.45;51.15;95868.44;5033125;28;20029;-29
2023/05/01 03:54:14;;;;;;;4.85;2.15;;;;;;;19.30;51.38;95868.66;5032781;28;20409;-30
2023/05/01 03:56:39;;;;;;;2.10;1.85;;;;;;;19.24;51.28;95876.16;5032980;28;20057;-29
2023/05/01 03:59:06;;;;;;;4.80;2.10;;;;;;;19.37;50.93;95879.19;5033826;28;20025;-29
2023/05/01 04:01:32;;;;;;;2.45;1.92;;;;;;;19.47;50.77;95877.69;5039714;28;20025;-29
2023/05/01 04:03:58;;;;;;;2.50;1.95;;;;;;;19.25;51.15;95886.66;5033200;28;20109;-30
2023/05/01 04:06:24;;;;;;;3.33;2.17;;;;;;;19.26;51.17;95887.41;5033021;28;20064;-29
2023/05/01 04:08:50;;;;;;;5.72;1.95;;;;;;;19.31;50.47;95897.66;5033179;28;20041;-29
2023/05/01 04:11:15;;;;;;;2.67;1.85;;;;;;;19.32;50.54;95882.66;5032752;28;20053;-30
2023/05/01 04:13:41;;;;;;;2.80;1.92;;;;;;;19.46;50.09;95891.94;5033097;28;20025;-29
2023/05/01 04:16:06;;;;;;;3.00;2.08;;;;;;;19.48;50.34;95878.44;5032966;28;20025;-29
2023/05/01 04:18:32;;;;;;;2.53;1.60;;;;;;;19.37;50.66;95895.69;5032801;28;20032;-29
2023/05/01 04:20:57;;;;;;;3.88;2.10;;;;;;;19.43;50.59;95893.69;5031666;28;20100;-29
2023/05/01 04:23:22;;;;;;;5.00;1.98;;;;;;;19.56;50.34;95890.47;5032866;28;20056;-29
2023/05/01 04:25:48;;;;;;;2.10;1.90;;;;;;;19.31;51.02;95889.41;5032915;28;20029;-31
2023/05/01 04:28:13;;;;;;;3.80;1.70;;;;;;;19.37;50.84;95888.19;5033012;28;20060;-31
2023/05/01 04:30:39;;;;;;;5.32;2.00;;;;;;;19.23;51.17;95893.91;5032791;28;20520;-29
2023/05/01 04:33:10;;;;;;;3.33;2.30;;;;;;;19.32;50.78;95890.91;5032835;28;20018;-30
2023/05/01 04:35:38;;;;;;;2.60;1.90;;;;;;;19.17;50.76;95890.38;5032758;28;20033;-30
2023/05/01 04:38:04;;;;;;;3.38;2.13;;;;;;;19.28;50.56;95893.19;5032935;28;20025;-29
2023/05/01 04:40:30;;;;;;;3.88;2.13;;;;;;;19.21;51.06;95897.16;5032580;28;20052;-29
2023/05/01 04:42:55;;;;;;;3.53;2.65;;;;;;;19.24;50.90;95898.16;5035936;28;20032;-29
2023/05/01 04:45:21;;;;;;;2.92;2.00;;;;;;;19.24;51.00;95895.41;5036708;28;20022;-31
2023/05/01 04:47:46;;;;;;;2.67;1.98;;;;;;;19.36;50.37;95905.19;5036717;28;20477;-29
2023/05/01 04:50:11;;;;;;;3.75;2.00;;;;;;;19.29;50.76;95911.16;5036956;28;20029;-30
2023/05/01 04:52:37;;;;;;;3.22;2.10;;;;;;;19.20;50.82;95903.13;5036306;28;20116;-29
2023/05/01 04:55:03;;;;;;;3.28;2.08;;;;;;;19.25;50.79;95905.16;5038663;28;20041;-30
2023/05/01 04:57:28;;;;;;;5.30;2.00;;;;;;;19.13;51.29;95900.88;5042783;28;20022;-29
2023/05/01 04:59:54;;;;;;;3.83;2.00;;;;;;;19.34;50.87;95902.16;5036776;28;20033;-31
2023/05/01 05:02:19;;;;;;;2.63;1.85;;;;;;;19.28;50.73;95904.94;5036305;28;20013;-30
2023/05/01 05:04:46;;;;;;;2.75;1.80;;;;;;;19.24;50.87;95900.91;5036377;28;20028;-29
2023/05/01 05:07:12;;;;;;;3.28;2.10;;;;;;;19.29;50.72;95900.91;5036235;28;20079;-30
2023/05/01 05:09:37;;;;;;;2.72;2.00;;;;;;;19.25;50.82;95894.91;5039123;28;20031;-29
2023/05/01 05:12:03;;;;;;;2.53;1.90;;;;;;;19.17;50.83;95896.63;5039779;28;20017;-29
2023/05/01 05:14:29;;;;;;;4.00;2.22;;;;;;;19.24;50.92;95898.91;5035864;28;20056;-29
2023/05/01 05:16:55;;;;;;;4.18;1.80;;;;;;;19.27;50.71;95902.66;5038863;28;20032;-29
2023/05/01 05:19:20;;;;;;;3.20;1.98;;;;;;;19.48;49.50;95901.19;5035707;28;20029;-29
2023/05/01 05:21:46;;;;;;;2.08;1.70;;;;;;;19.30;50.35;95896.16;5035711;28;20437;-30
2023/05/01 05:24:12;;;;;;;2.22;1.95;;;;;;;19.35;50.08;95893.44;5036043;28;20037;-29
2023/05/01 05:26:38;;;;;;;3.13;1.85;;;;;;;19.40;50.35;95896.69;5036128;28;20021;-29
2023/05/01 05:29:03;;;;;;;3.45;2.05;;;;;;;19.28;50.17;95893.94;5035804;28;20492;-29
2023/05/01 05:31:29;;;;;;;2.47;1.80;;;;;;;19.48;49.42;95898.44;5035837;28;20025;-29
2023/05/01 05:33:54;;;;;;;2.30;1.90;;;;;;;19.48;49.77;95892.94;5035689;28;20533;-29
2023/05/01 05:36:20;;;;;;;2.67;1.73;;;;;;;19.17;50.28;95893.13;5035743;28;20071;-29
2023/05/01 05:38:46;;;;;;;2.40;1.80;;;;;;;19.46;49.91;95895.44;5035596;28;20095;-29
2023/05/01 05:41:11;;;;;;;2.80;2.10;;;;;;;19.44;49.63;95908.94;5036350;28;20091;-29
2023/05/01 05:43:36;;;;;;;2.45;1.90;;;;;;;19.23;50.41;95902.91;5035759;28;20057;-29
2023/05/01 05:46:02;;;;;;;4.47;1.90;;;;;;;19.38;49.13;95905.44;5035708;28;20029;-29
2023/05/01 05:48:29;;;;;;;5.72;1.73;;;;;;;19.38;49.67;95900.69;5035477;28;20017;-30
2023/05/01 05:50:54;;;;;;;3.70;2.00;;;;;;;19.25;50.24;95900.41;5035418;28;20034;-29
2023/05/01 05:53:20;;;;;;;3.22;1.85;;;;;;;19.49;49.17;95915.75;5034508;28;20075;-29
2023/05/01 05:55:47;;;;;;;4.55;2.15;;;;;;;19.42;49.68;95913.44;5035427;28;20035;-29
2023/05/01 05:58:18;;;;;;;3.33;2.25;;;;;;;19.33;50.09;95906.16;5035087;28;20036;-29
2023/05/01 06:00:45;;;;;;;4.22;2.70;;;;;;;19.45;49.26;95909.69;5035750;28;20025;-29
2023/05/01 06:03:10;;;;;;;2.83;2.00;;;;;;;19.25;49.57;95908.66;5034995;28;20028;-29
2023/05/01 06:05:36;;;;;;;2.50;1.90;;;;;;;19.34;49.50;95915.91;5035153;28;20022;-30
2023/05/01 06:08:01;;;;;;;3.60;1.92;;;;;;;19.37;49.39;95926.69;5034827;28;20018;-29
2023/05/01 06:10:26;;;;;;;2.03;1.70;;;;;;;19.53;49.27;95921.75;5035136;28;20075;-28
2023/05/01 06:12:52;;;;;;;3.53;1.60;;;;;;;19.44;49.68;95919.19;5035015;28;20036;-29
2023/05/01 06:15:17;;;;;;;2.88;2.17;;;;;;;19.44;49.43;95927.44;5034952;28;20017;-29
2023/05/01 06:17:43;;;;;;;3.33;2.10;;;;;;;19.45;49.63;95924.19;5034922;28;20025;-29
2023/05/01 06:20:09;;;;;;;2.33;1.83;;;;;;;19.29;50.10;95924.91;5034920;28;20468;-29
2023/05/01 06:22:34;;;;;;;5.00;2.28;;;;;;;19.51;49.52;95914.00;5034717;28;20048;-30
2023/05/01 06:25:00;;;;;;;9.27;2.00;;;;;;;19.44;49.67;95925.44;5034834;28;20096;-29
2023/05/01 06:27:26;;;;;;;6.50;2.13;;;;;;;19.41;49.94;95922.94;5034666;28;20063;-29
2023/05/01 06:29:51;;;;;;;4.32;2.00;;;;;;;19.43;50.13;95925.94;5034698;28;20028;-29
2023/05/01 06:32:16;;;;;;;2.55;1.92;;;;;;;19.53;49.76;95930.00;5034586;28;20017;-29
2023/05/01 06:34:42;;;;;;;2.60;1.85;;;;;;;19.43;50.06;95923.94;5034635;28;20103;-29
2023/05/01 06:37:07;;;;;;;2.97;2.03;;;;;;;19.29;50.52;95924.91;5034357;28;20535;-30
2023/05/01 06:39:33;;;;;;;2.38;1.90;;;;;;;19.48;49.83;95928.72;5034304;28;20454;-31
2023/05/01 06:41:58;;;;;;;2.97;1.83;;;;;;;19.41;49.96;95934.66;5042029;28;20079;-30
2023/05/01 06:44:24;;;;;;;2.53;1.83;;;;;;;19.56;49.48;95932.50;5034236;28;20033;-29
2023/05/01 06:46:49;;;;;;;3.15;2.17;;;;;;;19.36;50.17;95932.69;5034218;28;20025;-29
2023/05/01 06:49:15;;;;;;;2.85;1.95;;;;;;;19.40;49.99;95933.19;5043834;28;20460;-29
2023/05/01 06:51:40;;;;;;;3.58;1.90;;;;;;;19.36;50.25;95930.69;5034426;28;20505;-29
2023/05/01 06:54:05;;;;;;;3.00;2.00;;;;;;;19.36;50.00;95933.44;5033836;28;20063;-29
2023/05/01 06:56:32;;;;;;;3.17;1.92;;;;;;;19.43;49.91;95926.69;5034304;28;20466;-29
2023/05/01 06:58:57;;;;;;;2.53;1.80;;;;;;;19.46;49.84;95933.19;5034217;28;20469;-30
2023/05/01 07:01:22;;;;;;;3.63;2.10;;;;;;;19.50;50.04;95931.00;5037078;28;20037;-29
2023/05/01 07:03:49;;;;;;;2.95;2.05;;;;;;;19.42;49.92;95927.94;5037594;28;20050;-29
2023/05/01 07:06:14;;;;;;;4.78;2.17;;;;;;;19.37;49.81;95934.94;5033661;28;20028;-29
2023/05/01 07:08:40;;;;;;;3.60;2.05;;;;;;;19.51;49.54;95935.25;5033986;28;20017;-29
2023/05/01 07:11:06;;;;;;;2.17;1.70;;;;;;;19.38;49.91;95935.69;5034010;28;20029;-29
2023/05/01 07:13:32;;;;;;;2.42;1.92;;;;;;;19.20;50.44;95936.13;5033945;28;20020;-29
2023/05/01 07:15:57;;;;;;;3.40;2.00;;;;;;;19.36;50.24;95927.19;5033958;28;20029;-30
2023/05/01 07:18:22;;;;;;;3.05;1.83;;;;;;;19.48;49.71;95936.19;5033623;28;20033;-29
2023/05/01 07:20:49;;;;;;;3.20;2.22;;;;;;;19.48;49.60;95933.44;5033593;28;20020;-30
2023/05/01 07:23:15;;;;;;;3.28;1.88;;;;;;;19.35;50.02;95931.16;5034821;28;20025;-29
2023/05/01 07:25:40;;;;;;;2.83;1.98;;;;;;;19.50;49.58;95937.25;5033324;28;20496;-29
2023/05/01 07:28:07;;;;;;;2.63;2.03;;;;;;;19.42;49.82;95936.19;5033589;28;20044;-29
2023/05/01 07:30:33;;;;;;;4.85;2.03;;;;;;;19.46;49.91;95930.44;5033821;28;20220;-31
2023/05/01 07:32:58;;;;;;;3.95;2.00;;;;;;;19.42;49.70;95944.44;5033512;28;20083;-29
2023/05/01 07:35:24;;;;;;;3.83;2.13;;;;;;;19.42;49.83;95938.19;5033335;28;20025;-29
2023/05/01 07:37:50;;;;;;;3.78;2.15;;;;;;;19.47;49.78;95943.69;5032052;28;20120;-31
2023/05/01 07:40:16;;;;;;;2.30;2.05;;;;;;;19.62;49.72;95947.03;5033615;28;20025;-29
2023/05/01 07:42:42;;;;;;;2.17;1.90;;;;;;;19.49;49.56;95937.75;5040317;28;20030;-30
2023/05/01 07:45:08;;;;;;;2.97;1.90;;;;;;;19.30;50.54;95937.41;5033551;28;20151;-30
2023/05/01 07:47:34;;;;;;;3.30;2.20;;;;;;;19.52;50.20;95940.25;5033494;28;20021;-29
2023/05/01 07:50:02;;;;;;;2.45;1.90;;;;;;;19.43;50.43;95937.69;5033085;28;20448;-29
2023/05/01 07:52:28;;;;;;;3.47;2.00;;;;;;;19.44;50.68;95936.44;5032201;28;20385;-29
2023/05/01 07:54:53;;;;;;;2.47;1.90;;;;;;;19.51;50.42;95938.00;5032888;28;20045;-31
2023/05/01 07:57:19;;;;;;;3.28;2.17;;;;;;;19.57;50.28;95931.25;5033201;28;20033;-29
2023/05/01 07:59:46;;;;;;;3.28;1.83;;;;;;;19.60;50.25;95938.50;5033784;28;20518;-29
2023/05/01 08:02:12;;;;;;;4.00;2.10;;;;;;;19.59;50.46;95939.00;5033136;28;20029;-29
2023/05/01 08:04:38;;;;;;;2.88;1.88;;;;;;;19.63;50.10;95936.75;5032967;28;20025;-29
2023/05/01 08:07:04;;;;;;;3.55;2.08;;;;;;;19.55;50.22;95938.47;5033127;28;20056;-30
2023/05/01 08:09:29;;;;;;;2.70;1.95;;;;;;;19.70;50.04;95939.00;5033150;28;20385;-29
2023/05/01 08:11:55;;;;;;;4.35;2.42;;;;;;;19.70;49.85;95939.00;5033057;28;20081;-29
2023/05/01 08:14:20;;;;;;;2.58;1.85;;;;;;;19.75;49.97;95934.78;5033121;28;20021;-29
2023/05/01 08:16:46;;;;;;;2.60;1.90;;;;;;;19.65;50.21;95937.78;5036090;28;20068;-29
2023/05/01 08:19:11;;;;;;;3.90;1.85;;;;;;;19.67;49.74;95940.75;5036952;28;20496;-29
2023/05/01 08:21:36;;;;;;;4.50;2.00;;;;;;;19.69;50.12;95943.75;5037490;28;20132;-30
2023/05/01 08:24:02;;;;;;;2.78;1.85;;;;;;;19.78;49.78;95933.78;5036928;28;20027;-29
2023/05/01 08:26:30;;;;;;;4.75;2.15;;;;;;;19.57;50.26;95934.00;5036968;28;20025;-29
2023/05/01 08:28:56;;;;;;;3.63;2.05;;;;;;;19.66;50.21;95933.75;5036893;28;20056;-29
2023/05/01 08:31:23;;;;;;;2.13;1.80;;;;;;;19.70;50.13;95937.00;5036995;28;20115;-29
2023/05/01 08:33:49;;;;;;;2.83;2.08;;;;;;;19.65;50.04;95924.03;5037285;28;20469;-29
2023/05/01 08:36:14;;;;;;;2.38;1.85;;;;;;;19.79;50.22;95930.50;5035792;28;20033;-30
2023/05/01 08:38:40;;;;;;;5.30;2.17;;;;;;;19.66;50.29;95933.75;5036773;28;20088;-29
2023/05/01 08:41:05;;;;;;;2.13;1.73;;;;;;;19.69;50.10;95926.50;5038462;28;20021;-29
2023/05/01 08:43:31;;;;;;;3.20;1.90;;;;;;;19.73;49.64;95929.78;5047962;28;20028;-30
2023/05/01 08:46:01;;;;;;;2.97;2.00;;;;;;;19.60;50.42;95940.50;5036641;28;20106;-29
2023/05/01 08:48:28;;;;;;;2.75;2.25;;;;;;;19.70;50.00;95928.00;5036587;28;20049;-30
2023/05/01 08:50:58;;;;;;;4.57;2.30;;;;;;;19.67;50.74;95938.00;5034934;28;20528;-29
2023/05/01 08:53:24;;;;;;;3.05;2.20;;;;;;;19.77;49.95;95935.78;5036476;28;20021;-29
2023/05/01 08:55:51;;;;;;;4.25;2.25;;;;;;;19.66;49.65;95939.25;5036250;28;20021;-29
2023/05/01 08:58:18;;;;;;;3.15;2.00;;;;;;;19.51;49.95;95932.50;5036810;28;20020;-29
2023/05/01 09:00:44;;;;;;;2.20;1.83;;;;;;;19.68;50.30;95936.00;5036309;28;20112;-29
2023/05/01 09:03:12;;;;;;;2.88;1.92;;;;;;;19.73;49.55;95927.78;5036525;28;20100;-29
2023/05/01 09:05:37;;;;;;;2.15;1.75;;;;;;;19.78;49.86;95928.28;5036334;28;20025;-29
2023/05/01 09:08:03;;;;;;;2.67;1.90;;;;;;;19.70;50.00;95926.00;5043460;28;20506;-29
2023/05/01 09:10:32;;;;;;;5.93;2.72;;;;;;;19.76;49.85;95936.28;5036060;28;20060;-29
2023/05/01 09:13:01;;;;;;;3.72;2.15;;;;;;;19.85;50.04;95933.28;5036079;28;20033;-29
2023/05/01 09:15:28;;;;;;;2.75;2.13;;;;;;;19.93;49.58;95929.53;5036346;28;20083;-29
2023/05/01 09:17:56;;;;;;;3.30;2.22;;;;;;;20.01;49.67;95930.53;5035988;28;20041;-29
2023/05/01 09:20:22;;;;;;;2.20;2.00;;;;;;;19.78;50.62;95926.25;5036096;28;20021;-29
2023/05/01 09:22:48;;;;;;;2.03;1.80;;;;;;;19.98;49.77;95930.78;5036702;28;20022;-29
2023/05/01 09:25:13;;;;;;;2.78;2.10;;;;;;;19.84;50.14;95927.03;5047990;28;20089;-30
2023/05/01 09:27:39;;;;;;;4.15;2.00;;;;;;;19.90;50.02;95925.03;5036104;28;20026;-29
2023/05/01 09:30:06;;;;;;;5.10;2.20;;;;;;;19.94;49.55;95935.78;5036064;28;20021;-30
2023/05/01 09:32:32;;;;;;;3.03;1.92;;;;;;;19.99;48.80;95935.03;5038271;28;20071;-29
2023/05/01 09:35:12;;;;;;;4.53;2.10;;;;;;;19.98;48.96;95937.03;5035581;28;20017;-29
2023/05/01 09:37:38;;;;;;;3.00;1.90;;;;;;;19.90;49.43;95932.53;5035372;28;20084;-29
2023/05/01 09:40:12;;;;;;;2.30;2.10;;;;;;;19.97;49.57;95934.78;5034835;28;20021;-29
2023/05/01 09:42:59;;;;;;;3.10;1.92;;;;;;;19.81;49.79;95938.28;5042768;28;20096;-29
2023/05/01 09:45:25;;;;;;;4.60;1.98;;;;;;;19.94;49.05;95939.28;5035325;28;20034;-32
2023/05/01 09:47:50;;;;;;;2.50;2.20;;;;;;;19.95;48.84;95934.53;5034432;28;20018;-31
2023/05/01 09:50:33;;;;;;;2.10;1.77;;;;;;;20.02;49.13;95937.56;5035327;28;20032;-29
2023/05/01 09:53:03;;;;;;;2.85;1.90;;;;;;;19.89;49.31;95945.56;5035084;28;20059;-29
2023/05/01 09:55:29;;;;;;;3.38;2.08;;;;;;;19.96;48.96;95936.78;5035404;28;20128;-30
2023/05/01 09:57:55;;;;;;;3.55;1.92;;;;;;;20.06;48.91;95937.28;5035192;28;20143;-29
2023/05/01 10:00:20;;;;;;;4.20;1.85;;;;;;;19.94;49.08;95935.78;5035707;28;20025;-30
2023/05/01 10:02:48;;;;;;;3.28;2.15;;;;;;;20.07;48.48;95939.53;5035324;28;20032;-29
2023/05/01 10:05:14;;;;;;;2.85;2.00;;;;;;;19.92;49.16;95936.28;5035075;28;20064;-29
2023/05/01 10:07:54;;;;;;;3.03;2.03;;;;;;;19.92;49.84;95935.53;5033895;28;20111;-29
2023/05/01 10:10:21;;;;;;;4.32;2.10;;;;;;;20.08;48.55;95932.03;5035043;28;20104;-29
2023/05/01 10:12:47;;;;;;;3.55;2.10;;;;;;;20.14;49.00;95943.81;5035138;28;20025;-30
2023/05/01 10:15:13;;;;;;;2.63;2.00;;;;;;;19.94;48.91;95935.78;5034756;28;20592;-29
2023/05/01 10:17:40;;;;;;;2.10;1.90;;;;;;;20.08;48.45;95937.53;5034789;28;20029;-29
2023/05/01 10:20:07;;;;;;;5.15;2.30;;;;;;;20.03;49.20;95930.03;5034910;28;20496;-29
2023/05/01 10:22:33;;;;;;;2.47;1.90;;;;;;;20.02;49.81;95932.03;5034999;28;20057;-29
2023/05/01 10:24:59;;;;;;;2.97;2.13;;;;;;;20.00;48.97;95920.03;5035234;28;20099;-29
2023/05/01 10:27:27;;;;;;;2.92;2.10;;;;;;;20.11;49.25;95920.03;5034956;28;20101;-29
2023/05/01 10:29:52;;;;;;;3.42;2.30;;;;;;;20.11;49.32;95922.78;5034698;28;20025;-30
2023/05/01 10:32:19;;;;;;;5.53;2.05;;;;;;;20.15;49.02;95917.78;5034437;28;20100;-29
2023/05/01 10:34:51;;;;;;;3.30;2.40;;;;;;;20.07;49.40;95922.28;5034701;28;20029;-29
2023/05/01 10:37:43;;;;;;;4.25;1.95;;;;;;;20.11;48.99;95922.03;5034592;28;20071;-29
2023/05/01 10:40:39;;;;;;;2.45;2.05;;;;;;;20.00;48.83;95929.03;5034665;28;20100;-29
2023/05/01 10:43:18;;;;;;;3.85;2.42;;;;;;;20.18;48.54;95911.25;5041277;28;20049;-29
2023/05/01 10:45:47;;;;;;;2.78;2.17;;;;;;;20.08;49.09;95913.50;5039083;28;20022;-29
2023/05/01 10:48:46;;;;;;;2.85;2.10;;;;;;;20.23;48.66;95910.50;5034515;28;20017;-29
2023/05/01 10:51:26;;;;;;;3.30;1.90;;;;;;;20.25;48.60;95901.75;5041482;28;20029;-29
2023/05/01 10:54:17;;;;;;;2.75;2.10;;;;;;;20.22;48.60;95906.25;5033875;28;20051;-29
2023/05/01 10:56:43;;;;;;;3.75;2.33;;;;;;;20.09;48.85;95897.75;5035833;28;20033;-30
2023/05/01 10:59:09;;;;;;;2.90;2.15;;;;;;;20.16;49.12;95899.97;5039467;28;20424;-30
2023/05/01 11:01:35;;;;;;;3.38;2.42;;;;;;;20.25;49.10;95893.47;5033825;28;20029;-29
2023/05/01 11:04:12;;;;;;;3.28;2.53;;;;;;;20.15;48.95;95897.75;5034016;28;20021;-29
2023/05/01 11:07:01;;;;;;;3.58;2.60;;;;;;;20.26;48.98;95889.47;5034196;28;20029;-30
2023/05/01 11:09:42;;;;;;;3.05;2.38;;;;;;;20.27;48.71;95888.22;5033895;28;20051;-29
2023/05/01 11:12:10;;;;;;;5.07;2.80;;;;;;;20.08;49.31;95888.00;5033666;28;20032;-28
2023/05/01 11:14:55;;;;;;;3.28;2.40;;;;;;;20.24;48.99;95881.72;5041040;28;20470;-29
2023/05/01 11:17:42;;;;;;;3.60;2.40;;;;;;;20.28;48.99;95886.94;5033482;28;20043;-29
2023/05/01 11:20:09;;;;;;;3.22;2.53;;;;;;;20.21;49.04;95882.72;5033738;28;20021;-29
2023/05/01 11:22:36;;;;;;;3.90;2.53;;;;;;;20.30;48.61;95876.94;5033933;28;20519;-30
2023/05/01 11:25:03;;;;;;;3.67;2.60;;;;;;;20.10;48.79;95874.47;5033757;28;20032;-29
2023/05/01 11:27:29;;;;;;;5.22;2.40;;;;;;;20.13;49.42;95875.47;5033507;28;20388;-29
2023/05/01 11:29:57;;;;;;;3.42;2.20;;;;;;;20.25;48.81;95876.97;5033834;28;20025;-29
2023/05/01 11:32:26;;;;;;;4.78;2.47;;;;;;;20.17;49.07;95873.94;5032037;28;20021;-30
2023/05/01 11:34:53;;;;;;;4.75;2.63;;;;;;;20.18;49.04;95878.22;5033590;28;20022;-30
2023/05/01 11:37:19;;;;;;;5.82;2.60;;;;;;;20.33;48.91;95873.19;5033448;28;20030;-29